createdAt,value
2018-05-15T00:02:17.779Z,7.83
2018-05-15T00:04:46.273Z,7.77
2018-05-15T00:07:14.988Z,7.30
2018-05-15T00:09:43.337Z,7.30
2018-05-15T00:12:11.753Z,6.37
2018-05-15T00:14:40.107Z,6.67
2018-05-15T00:17:08.414Z,7.93
2018-05-15T00:19:36.877Z,6.53
2018-05-15T00:22:05.209Z,7.20
2018-05-15T00:24:33.708Z,6.47
2018-05-15T00:27:02.026Z,6.73
2018-05-15T00:29:30.338Z,7.13
2018-05-15T00:31:58.696Z,7.50
2018-05-15T00:34:27.029Z,7.20
2018-05-15T00:36:55.376Z,6.73
2018-05-15T00:39:23.709Z,7.17
2018-05-15T00:41:52.055Z,8.10
2018-05-15T00:44:20.503Z,7.90
2018-05-15T00:46:48.781Z,7.13
2018-05-15T00:49:17.136Z,7.23
2018-05-15T00:51:45.485Z,6.77
2018-05-15T00:54:13.817Z,7.60
2018-05-15T00:56:42.185Z,7.97
2018-05-15T00:59:10.588Z,7.73
2018-05-15T01:01:38.914Z,7.47
2018-05-15T01:04:08.237Z,7.43
2018-05-15T01:06:36.551Z,7.87
2018-05-15T01:09:04.898Z,7.77
2018-05-15T01:11:33.292Z,7.73
2018-05-15T01:14:01.622Z,7.50
2018-05-15T01:16:29.947Z,8.80
2018-05-15T01:18:58.284Z,8.13
2018-05-15T01:21:26.624Z,8.47
2018-05-15T01:23:54.955Z,7.53
2018-05-15T01:26:23.329Z,8.03
2018-05-15T01:28:51.728Z,8.20
2018-05-15T01:31:20.066Z,8.77
2018-05-15T01:33:48.408Z,8.20
2018-05-15T01:36:16.738Z,9.30
2018-05-15T01:38:45.089Z,8.13
2018-05-15T01:41:13.412Z,8.27
2018-05-15T01:43:41.743Z,8.00
2018-05-15T01:46:10.084Z,9.23
2018-05-15T01:48:38.408Z,7.93
2018-05-15T01:51:06.752Z,7.87
2018-05-15T01:53:35.075Z,8.63
2018-05-15T01:56:03.414Z,8.20
2018-05-15T01:58:31.726Z,9.10
2018-05-15T02:01:00.149Z,9.10
2018-05-15T02:03:28.472Z,8.77
2018-05-15T02:05:56.828Z,9.40
2018-05-15T02:08:25.132Z,8.67
2018-05-15T02:10:53.478Z,9.20
2018-05-15T02:13:21.866Z,8.77
2018-05-15T02:15:50.204Z,9.80
2018-05-15T02:18:18.519Z,9.60
2018-05-15T02:20:46.925Z,10.07
2018-05-15T02:23:15.350Z,8.57
2018-05-15T02:25:43.684Z,10.40
2018-05-15T02:28:12.013Z,9.43
2018-05-15T02:30:40.460Z,8.67
2018-05-15T02:33:08.787Z,10.40
2018-05-15T02:35:37.229Z,8.83
2018-05-15T02:38:05.703Z,9.40
2018-05-15T02:40:34.094Z,9.83
2018-05-15T02:43:02.494Z,10.30
2018-05-15T02:45:30.876Z,9.63
2018-05-15T02:47:59.208Z,9.33
2018-05-15T02:50:27.549Z,9.43
2018-05-15T02:52:55.883Z,9.33
2018-05-15T02:55:24.207Z,10.77
2018-05-15T02:57:52.655Z,9.27
2018-05-15T03:00:21.155Z,13.23
2018-05-15T03:02:49.537Z,12.70
2018-05-15T03:05:17.920Z,10.20
2018-05-15T03:07:46.465Z,10.60
2018-05-15T03:10:14.904Z,11.30
2018-05-15T03:12:43.268Z,10.30
2018-05-15T03:15:11.644Z,10.90
2018-05-15T03:17:39.969Z,11.23
2018-05-15T03:20:08.305Z,11.13
2018-05-15T03:22:36.660Z,9.67
2018-05-15T03:25:05.029Z,10.50
2018-05-15T03:27:33.447Z,11.20
2018-05-15T03:30:01.868Z,12.20
2018-05-15T03:32:30.252Z,11.07
2018-05-15T03:34:58.645Z,10.67
2018-05-15T03:37:26.975Z,11.90
2018-05-15T03:39:55.325Z,10.40
2018-05-15T03:42:23.648Z,10.33
2018-05-15T03:44:51.998Z,10.83
2018-05-15T03:47:24.978Z,10.87
2018-05-15T03:49:53.303Z,11.00
2018-05-15T03:52:22.499Z,10.10
2018-05-15T03:54:50.850Z,10.50
2018-05-15T03:57:19.183Z,10.97
2018-05-15T03:59:47.530Z,10.37
2018-05-15T04:02:27.879Z,11.60
2018-05-15T04:05:08.047Z,11.83
2018-05-15T04:07:48.333Z,11.50
2018-05-15T04:10:16.736Z,12.20
2018-05-15T04:12:45.072Z,11.17
2018-05-15T04:15:13.479Z,11.97
2018-05-15T04:17:42.016Z,11.63
2018-05-15T04:20:10.383Z,11.57
2018-05-15T04:22:38.709Z,11.90
2018-05-15T04:25:07.066Z,12.13
2018-05-15T04:27:35.417Z,11.20
2018-05-15T04:30:03.763Z,12.63
2018-05-15T04:32:32.109Z,11.50
2018-05-15T04:35:00.616Z,11.73
2018-05-15T04:37:28.928Z,12.17
2018-05-15T04:39:57.274Z,12.13
2018-05-15T04:42:25.612Z,11.27
2018-05-15T04:44:53.949Z,11.73
2018-05-15T04:47:22.300Z,11.97
2018-05-15T04:49:50.671Z,13.07
2018-05-15T04:52:18.994Z,11.07
2018-05-15T04:54:47.352Z,11.37
2018-05-15T04:57:15.686Z,10.70
2018-05-15T04:59:44.044Z,11.83
2018-05-15T05:02:12.453Z,11.40
2018-05-15T05:04:40.779Z,12.27
2018-05-15T05:07:09.323Z,11.40
2018-05-15T05:09:37.040Z,12.07
2018-05-15T05:12:05.382Z,11.13
2018-05-15T05:14:33.713Z,12.13
2018-05-15T05:17:02.059Z,11.60
2018-05-15T05:19:30.467Z,11.33
2018-05-15T05:21:58.865Z,11.57
2018-05-15T05:24:27.188Z,11.13
2018-05-15T05:26:55.641Z,11.30
2018-05-15T05:29:23.992Z,11.67
2018-05-15T05:31:52.329Z,11.60
2018-05-15T05:34:20.738Z,11.80
2018-05-15T05:36:49.061Z,12.80
2018-05-15T05:39:17.408Z,11.00
2018-05-15T05:41:45.737Z,11.20
2018-05-15T05:44:14.197Z,11.73
2018-05-15T05:46:42.620Z,10.77
2018-05-15T05:49:10.956Z,10.27
2018-05-15T05:51:39.369Z,11.83
2018-05-15T05:54:07.737Z,11.33
2018-05-15T05:56:36.072Z,13.00
2018-05-15T05:59:04.438Z,12.00
2018-05-15T06:01:32.775Z,11.83
2018-05-15T06:04:01.224Z,10.67
2018-05-15T06:06:29.551Z,11.57
2018-05-15T06:08:57.940Z,11.87
2018-05-15T06:11:26.306Z,11.93
2018-05-15T06:13:54.646Z,10.00
2018-05-15T06:16:23.089Z,11.17
2018-05-15T06:18:51.471Z,10.10
2018-05-15T06:21:19.806Z,8.97
2018-05-15T06:23:48.118Z,11.33
2018-05-15T06:26:16.449Z,11.43
2018-05-15T06:28:44.773Z,10.33
2018-05-15T06:31:13.161Z,11.37
2018-05-15T06:33:41.498Z,12.03
2018-05-15T06:36:09.837Z,12.23
2018-05-15T06:38:38.233Z,12.63
2018-05-15T06:41:06.555Z,12.20
2018-05-15T06:43:35.000Z,12.03
2018-05-15T06:46:03.357Z,12.53
2018-05-15T06:48:31.688Z,12.27
2018-05-15T06:51:00.089Z,11.20
2018-05-15T06:53:28.473Z,10.90
2018-05-15T06:55:56.805Z,12.00
2018-05-15T06:58:25.276Z,11.03
2018-05-15T07:00:53.839Z,10.70
2018-05-15T07:03:22.350Z,10.83
2018-05-15T07:05:51.073Z,11.70
2018-05-15T07:08:19.502Z,10.23
2018-05-15T07:10:47.932Z,10.50
2018-05-15T07:13:16.336Z,11.17
2018-05-15T07:15:44.715Z,10.57
2018-05-15T07:18:13.068Z,10.93
2018-05-15T07:20:41.440Z,10.83
2018-05-15T07:23:09.782Z,9.90
2018-05-15T07:25:38.113Z,10.57
2018-05-15T07:28:06.464Z,11.10
2018-05-15T07:30:35.814Z,10.20
2018-05-15T07:33:04.237Z,9.73
2018-05-15T07:35:32.513Z,9.03
2018-05-15T07:38:00.876Z,9.57
2018-05-15T07:40:29.195Z,8.90
2018-05-15T07:42:57.527Z,9.53
2018-05-15T07:45:25.845Z,7.80
2018-05-15T07:47:54.169Z,7.77
2018-05-15T07:50:22.518Z,6.93
2018-05-15T07:52:50.930Z,7.60
2018-05-15T07:55:19.388Z,7.57
2018-05-15T07:57:47.727Z,7.40
2018-05-15T08:00:16.066Z,7.00
2018-05-15T08:02:45.787Z,6.70
2018-05-15T08:05:14.094Z,8.07
2018-05-15T08:07:42.429Z,7.80
2018-05-15T08:10:10.791Z,9.33
2018-05-15T08:12:39.126Z,7.60
2018-05-15T08:15:07.473Z,8.20
2018-05-15T08:17:35.846Z,8.50
2018-05-15T08:20:04.208Z,8.80
2018-05-15T08:22:32.621Z,8.67
2018-05-15T08:25:00.897Z,9.00
2018-05-15T08:27:29.235Z,7.50
2018-05-15T08:29:57.560Z,7.63
2018-05-15T08:32:25.912Z,7.70
2018-05-15T08:34:54.321Z,6.87
2018-05-15T08:37:22.749Z,7.43
2018-05-15T08:39:51.059Z,7.90
2018-05-15T08:42:19.396Z,7.13
2018-05-15T08:44:47.742Z,7.07
2018-05-15T08:47:16.078Z,6.53
2018-05-15T08:49:44.402Z,6.47
2018-05-15T08:52:12.729Z,8.23
2018-05-15T08:54:41.073Z,8.80
2018-05-15T08:57:09.413Z,7.57
2018-05-15T08:59:37.795Z,6.97
2018-05-15T09:02:06.227Z,7.03
2018-05-15T09:04:34.622Z,6.60
2018-05-15T09:07:02.966Z,6.10
2018-05-15T09:09:31.294Z,6.03
2018-05-15T09:11:59.707Z,6.60
2018-05-15T09:14:28.031Z,6.03
2018-05-15T09:16:56.449Z,7.00
2018-05-15T09:19:24.776Z,6.33
2018-05-15T09:21:53.116Z,6.57
2018-05-15T09:24:21.461Z,5.33
2018-05-15T09:26:49.803Z,4.93
2018-05-15T09:29:18.155Z,5.90
2018-05-15T09:31:46.505Z,5.10
2018-05-15T09:34:14.814Z,5.70
2018-05-15T09:36:43.882Z,5.90
2018-05-15T09:39:12.263Z,6.57
2018-05-15T09:41:40.675Z,6.60
2018-05-15T09:44:08.993Z,7.23
2018-05-15T09:46:37.476Z,7.00
2018-05-15T09:49:05.821Z,6.07
2018-05-15T09:51:34.144Z,5.80
2018-05-15T09:54:02.583Z,6.80
2018-05-15T09:56:30.908Z,6.03
2018-05-15T09:58:59.237Z,6.60
2018-05-15T10:01:27.602Z,7.07
2018-05-15T10:03:55.935Z,6.17
2018-05-15T10:06:24.279Z,6.33
2018-05-15T10:08:52.606Z,6.33
2018-05-15T10:11:20.999Z,6.20
2018-05-15T10:13:49.316Z,5.53
2018-05-15T10:16:17.685Z,6.17
2018-05-15T10:18:46.098Z,6.17
2018-05-15T10:21:14.568Z,6.37
2018-05-15T10:23:43.253Z,6.87
2018-05-15T10:26:11.682Z,9.00
2018-05-15T10:28:40.082Z,7.20
2018-05-15T10:31:08.407Z,8.30
2018-05-15T10:33:36.742Z,7.70
2018-05-15T10:36:05.163Z,6.90
2018-05-15T10:38:33.481Z,7.70
2018-05-15T10:41:01.805Z,7.97
2018-05-15T10:43:30.222Z,8.27
2018-05-15T10:45:58.558Z,8.20
2018-05-15T10:48:26.977Z,8.83
2018-05-15T10:50:55.315Z,7.33
2018-05-15T10:53:23.700Z,9.13
2018-05-15T10:55:52.044Z,8.70
2018-05-15T10:58:20.384Z,9.30
2018-05-15T11:00:49.152Z,10.67
2018-05-15T11:03:17.575Z,11.40
2018-05-15T11:05:45.928Z,11.80
2018-05-15T11:08:14.365Z,10.90
2018-05-15T11:10:42.809Z,12.57
2018-05-15T11:13:11.195Z,13.53
2018-05-15T11:15:39.539Z,14.33
2018-05-15T11:18:19.913Z,14.30
2018-05-15T11:21:02.552Z,15.10
2018-05-15T11:23:42.835Z,14.60
2018-05-15T11:26:11.179Z,13.07
2018-05-15T11:28:39.534Z,12.67
2018-05-15T11:31:07.879Z,10.87
2018-05-15T11:33:36.284Z,11.50
2018-05-15T11:36:04.688Z,9.03
2018-05-15T11:38:33.153Z,8.53
2018-05-15T11:41:01.478Z,8.70
2018-05-15T11:43:29.852Z,8.50
2018-05-15T11:45:58.177Z,10.47
2018-05-15T11:48:28.939Z,8.53
2018-05-15T11:50:59.838Z,7.87
2018-05-15T11:53:30.687Z,9.87
2018-05-15T11:55:59.107Z,11.20
2018-05-15T11:58:27.403Z,11.23
2018-05-15T12:00:56.526Z,10.03
2018-05-15T12:03:24.852Z,10.63
2018-05-15T12:05:53.191Z,9.83
2018-05-15T12:08:21.679Z,11.40
2018-05-15T12:10:49.943Z,11.57
2018-05-15T12:13:18.290Z,11.90
2018-05-15T12:15:46.745Z,10.10
2018-05-15T12:18:15.078Z,10.43
2018-05-15T12:20:43.452Z,10.67
2018-05-15T12:23:11.786Z,12.07
2018-05-15T12:25:40.122Z,10.10
2018-05-15T12:28:08.559Z,10.00
2018-05-15T12:30:36.851Z,9.67
2018-05-15T12:33:05.291Z,8.73
2018-05-15T12:35:33.758Z,8.70
2018-05-15T12:38:02.093Z,9.40
2018-05-15T12:40:30.450Z,8.37
2018-05-15T12:42:58.745Z,6.43
2018-05-15T12:45:28.050Z,7.03
2018-05-15T12:47:56.422Z,6.53
2018-05-15T12:50:24.732Z,6.37
2018-05-15T12:52:53.186Z,7.07
2018-05-15T12:55:21.522Z,6.50
2018-05-15T12:57:49.874Z,6.37
2018-05-15T13:00:18.360Z,6.50
2018-05-15T13:02:46.674Z,7.67
2018-05-15T13:05:15.011Z,6.03
2018-05-15T13:07:43.357Z,6.97
2018-05-15T13:10:11.687Z,6.73
2018-05-15T13:12:42.287Z,6.17
2018-05-15T13:15:10.606Z,5.83
2018-05-15T13:17:38.934Z,5.93
2018-05-15T13:20:07.255Z,6.50
2018-05-15T13:22:35.569Z,6.87
2018-05-15T13:25:03.904Z,6.27
2018-05-15T13:27:32.253Z,6.33
2018-05-15T13:30:00.675Z,5.80
2018-05-15T13:32:28.978Z,5.93
2018-05-15T13:34:57.332Z,5.37
2018-05-15T13:37:25.764Z,7.13
2018-05-15T13:39:54.140Z,6.80
2018-05-15T13:42:22.569Z,8.30
2018-05-15T13:44:51.037Z,8.03
2018-05-15T13:47:19.375Z,8.97
2018-05-15T13:49:47.693Z,6.90
2018-05-15T13:52:16.115Z,8.40
2018-05-15T13:54:44.443Z,7.33
2018-05-15T13:57:12.799Z,7.87
2018-05-15T13:59:41.831Z,7.87
2018-05-15T14:02:10.186Z,8.10
2018-05-15T14:04:38.570Z,7.50
2018-05-15T14:07:07.017Z,8.30
2018-05-15T14:09:35.356Z,7.50
2018-05-15T14:12:03.752Z,7.83
2018-05-15T14:14:32.081Z,7.03
2018-05-15T14:17:00.454Z,8.20
2018-05-15T14:19:28.854Z,8.47
2018-05-15T14:21:57.249Z,8.40
2018-05-15T14:24:25.643Z,9.07
2018-05-15T14:26:54.094Z,9.73
2018-05-15T14:29:22.452Z,10.17
2018-05-15T14:31:50.780Z,9.70
2018-05-15T14:34:19.179Z,9.60
2018-05-15T14:36:47.504Z,9.03
2018-05-15T14:39:15.837Z,8.60
2018-05-15T14:41:56.098Z,9.70
2018-05-15T14:44:24.541Z,9.60
2018-05-15T14:46:52.938Z,8.83
2018-05-15T14:49:21.316Z,9.37
2018-05-15T14:51:49.727Z,9.67
2018-05-15T14:54:18.106Z,10.20
2018-05-15T14:56:46.534Z,9.80
2018-05-15T14:59:14.989Z,10.00
2018-05-15T15:01:43.341Z,9.80
2018-05-15T15:04:11.687Z,9.73
2018-05-15T15:06:40.074Z,11.43
2018-05-15T15:09:08.425Z,9.63
2018-05-15T15:11:36.747Z,10.53
2018-05-15T15:14:05.139Z,10.13
2018-05-15T15:16:33.475Z,10.53
2018-05-15T15:19:01.825Z,10.80
2018-05-15T15:21:30.187Z,10.00
2018-05-15T15:23:58.648Z,10.43
2018-05-15T15:26:27.098Z,9.57
2018-05-15T15:28:55.471Z,9.93
2018-05-15T15:31:23.836Z,11.23
2018-05-15T15:33:54.058Z,8.80
2018-05-15T15:36:22.400Z,9.63
2018-05-15T15:38:50.751Z,10.47
2018-05-15T15:41:19.219Z,10.70
2018-05-15T15:43:47.858Z,9.50
2018-05-15T15:46:16.157Z,9.53
2018-05-15T15:48:44.580Z,9.80
2018-05-15T15:51:12.921Z,9.47
2018-05-15T15:53:41.273Z,9.97
2018-05-15T15:56:09.614Z,8.70
2018-05-15T15:58:37.961Z,9.37
2018-05-15T16:01:10.587Z,9.43
2018-05-15T16:03:40.598Z,8.80
2018-05-15T16:06:10.170Z,9.10
2018-05-15T16:08:38.493Z,8.23
2018-05-15T16:11:06.886Z,8.57
2018-05-15T16:13:35.288Z,7.73
2018-05-15T16:16:03.687Z,8.70
2018-05-15T16:18:32.065Z,7.50
2018-05-15T16:21:00.401Z,8.17
2018-05-15T16:23:29.052Z,9.40
2018-05-15T16:25:57.397Z,9.43
2018-05-15T16:28:25.753Z,8.77
2018-05-15T16:30:54.096Z,9.67
2018-05-15T16:33:22.445Z,8.07
2018-05-15T16:35:50.795Z,9.53
2018-05-15T16:38:19.174Z,7.73
2018-05-15T16:40:48.604Z,8.43
2018-05-15T16:43:16.927Z,8.43
2018-05-15T16:45:45.261Z,8.67
2018-05-15T16:48:13.599Z,8.80
2018-05-15T16:50:42.020Z,8.27
2018-05-15T16:53:10.376Z,8.20
2018-05-15T16:55:38.873Z,8.07
2018-05-15T16:58:07.268Z,9.13
2018-05-15T17:00:35.635Z,9.13
2018-05-15T17:03:04.068Z,10.03
2018-05-15T17:05:32.446Z,8.73
2018-05-15T17:08:00.804Z,10.07
2018-05-15T17:10:29.142Z,9.27
2018-05-15T17:12:57.470Z,8.70
2018-05-15T17:15:25.928Z,9.43
2018-05-15T17:17:54.267Z,8.30
2018-05-15T17:20:22.618Z,9.00
2018-05-15T17:22:50.969Z,10.90
2018-05-15T17:25:19.332Z,9.43
2018-05-15T17:27:47.835Z,9.43
2018-05-15T17:30:16.274Z,10.27
2018-05-15T17:32:44.636Z,10.57
2018-05-15T17:35:12.973Z,10.10
2018-05-15T17:37:41.317Z,10.70
2018-05-15T17:40:09.765Z,10.60
2018-05-15T17:42:38.372Z,10.73
2018-05-15T17:45:06.746Z,10.07
2018-05-15T17:47:35.279Z,10.37
2018-05-15T17:50:03.631Z,10.40
2018-05-15T17:52:32.031Z,10.33
2018-05-15T17:55:00.368Z,10.33
2018-05-15T17:57:28.779Z,12.20
2018-05-15T17:59:57.128Z,10.70
2018-05-15T18:02:25.489Z,10.90
2018-05-15T18:04:53.828Z,10.47
2018-05-15T18:07:22.172Z,10.87
2018-05-15T18:09:50.561Z,10.87
2018-05-15T18:12:18.917Z,10.47
2018-05-15T18:14:47.278Z,10.00
2018-05-15T18:17:15.863Z,10.83
2018-05-15T18:19:44.205Z,10.47
2018-05-15T18:22:12.582Z,10.17
2018-05-15T18:24:41.039Z,10.07
2018-05-15T18:27:09.372Z,9.80
2018-05-15T18:29:37.809Z,10.00
2018-05-15T18:32:06.198Z,9.20
2018-05-15T18:34:34.596Z,9.80
2018-05-15T18:37:02.931Z,9.60
2018-05-15T18:39:31.289Z,10.53
2018-05-15T18:41:59.660Z,9.57
2018-05-15T18:44:28.010Z,9.93
2018-05-15T18:46:56.337Z,9.30
2018-05-15T18:49:24.716Z,10.03
2018-05-15T18:51:53.123Z,10.70
2018-05-15T18:54:21.544Z,10.53
2018-05-15T18:56:49.929Z,10.97
2018-05-15T18:59:18.271Z,10.27
2018-05-15T19:01:46.723Z,11.97
2018-05-15T19:04:15.081Z,12.27
2018-05-15T19:06:43.584Z,12.47
2018-05-15T19:09:11.859Z,12.30
2018-05-15T19:11:40.194Z,12.20
2018-05-15T19:14:08.545Z,11.73
2018-05-15T19:16:36.872Z,11.03
2018-05-15T19:19:05.250Z,9.93
2018-05-15T19:21:33.574Z,8.90
2018-05-15T19:24:01.918Z,8.90
2018-05-15T19:26:30.241Z,9.47
2018-05-15T19:28:58.591Z,8.10
2018-05-15T19:31:32.613Z,7.97
2018-05-15T19:34:00.966Z,7.90
2018-05-15T19:36:31.215Z,7.50
2018-05-15T19:39:05.066Z,7.87
2018-05-15T19:41:34.305Z,7.00
2018-05-15T19:44:02.688Z,6.57
2018-05-15T19:46:31.100Z,7.67
2018-05-15T19:48:59.403Z,7.00
2018-05-15T19:51:27.766Z,6.30
2018-05-15T19:53:56.084Z,6.70
2018-05-15T19:56:24.397Z,6.73
2018-05-15T19:58:52.738Z,7.53
2018-05-15T20:01:21.109Z,5.90
2018-05-15T20:03:49.455Z,6.67
2018-05-15T20:06:17.805Z,6.03
2018-05-15T20:08:46.204Z,7.37
2018-05-15T20:11:14.576Z,6.13
2018-05-15T20:13:42.892Z,5.77
2018-05-15T20:16:11.300Z,6.03
2018-05-15T20:18:39.580Z,5.27
2018-05-15T20:21:07.920Z,6.07
2018-05-15T20:23:36.348Z,6.33
2018-05-15T20:26:04.760Z,6.63
2018-05-15T20:28:33.143Z,7.20
2018-05-15T20:31:01.495Z,6.57
2018-05-15T20:33:29.969Z,5.93
2018-05-15T20:35:58.314Z,6.10
2018-05-15T20:38:26.678Z,6.40
2018-05-15T20:40:56.004Z,7.13
2018-05-15T20:43:24.508Z,6.20
2018-05-15T20:45:52.817Z,7.33
2018-05-15T20:48:21.197Z,6.67
2018-05-15T20:50:49.886Z,6.50
2018-05-15T20:53:18.204Z,6.60
2018-05-15T20:55:46.587Z,6.00
2018-05-15T20:58:14.918Z,7.33
2018-05-15T21:00:43.674Z,6.63
2018-05-15T21:03:11.939Z,8.40
2018-05-15T21:05:40.280Z,7.80
2018-05-15T21:08:08.674Z,6.77
2018-05-15T21:10:37.218Z,6.57
2018-05-15T21:13:05.644Z,7.50
2018-05-15T21:15:33.978Z,6.10
2018-05-15T21:18:02.367Z,7.13
2018-05-15T21:20:30.825Z,8.13
2018-05-15T21:22:59.222Z,8.10
2018-05-15T21:25:27.529Z,8.27
2018-05-15T21:27:55.861Z,8.27
2018-05-15T21:30:24.305Z,8.37
2018-05-15T21:32:52.637Z,7.80
2018-05-15T21:35:21.072Z,7.90
2018-05-15T21:37:49.517Z,8.90
2018-05-15T21:40:17.905Z,8.20
2018-05-15T21:42:46.240Z,9.50
2018-05-15T21:45:14.586Z,8.17
2018-05-15T21:47:42.910Z,8.83
2018-05-15T21:50:11.376Z,7.80
2018-05-15T21:52:39.760Z,7.80
2018-05-15T21:55:08.138Z,8.10
2018-05-15T21:57:36.500Z,8.50
2018-05-15T22:00:04.854Z,8.70
2018-05-15T22:02:33.153Z,8.40
2018-05-15T22:05:01.527Z,8.07
2018-05-15T22:07:29.864Z,7.77
2018-05-15T22:09:58.201Z,8.43
2018-05-15T22:12:39.065Z,7.70
2018-05-15T22:15:19.234Z,7.87
2018-05-15T22:17:59.421Z,8.17
2018-05-15T22:20:39.678Z,8.70
2018-05-15T22:23:07.468Z,9.13
2018-05-15T22:25:35.810Z,8.57
2018-05-15T22:28:04.207Z,7.77
2018-05-15T22:30:32.568Z,8.57
2018-05-15T22:33:00.894Z,8.07
2018-05-15T22:35:29.863Z,8.37
2018-05-15T22:37:58.187Z,9.17
2018-05-15T22:40:26.526Z,9.90
2018-05-15T22:42:54.910Z,10.43
2018-05-15T22:45:23.292Z,8.53
2018-05-15T22:47:51.769Z,7.73
2018-05-15T22:50:20.133Z,9.20
2018-05-15T22:52:48.575Z,9.20
2018-05-15T22:55:16.911Z,9.63
2018-05-15T22:57:45.279Z,8.60
2018-05-15T23:00:13.634Z,8.70
2018-05-15T23:02:41.991Z,8.50
2018-05-15T23:05:10.335Z,8.97
2018-05-15T23:07:38.723Z,8.90
2018-05-15T23:10:07.072Z,9.10
2018-05-15T23:12:35.396Z,8.40
2018-05-15T23:15:03.719Z,9.47
2018-05-15T23:17:32.041Z,9.00
2018-05-15T23:20:00.471Z,9.37
2018-05-15T23:22:40.665Z,9.20
2018-05-15T23:25:08.980Z,9.03
2018-05-15T23:27:37.331Z,9.70
2018-05-15T23:30:05.670Z,10.63
2018-05-15T23:32:34.028Z,10.60
2018-05-15T23:35:02.416Z,10.53
2018-05-15T23:37:30.754Z,10.40
2018-05-15T23:39:59.080Z,10.30
2018-05-15T23:42:27.706Z,11.50
2018-05-15T23:44:56.046Z,11.57
2018-05-15T23:47:24.390Z,11.57
2018-05-15T23:49:52.786Z,12.20
2018-05-15T23:52:21.183Z,12.20
2018-05-15T23:54:49.777Z,12.47
2018-05-15T23:57:18.114Z,12.43
2018-05-15T23:59:46.459Z,13.40
